Grahamville, Kentucky
Current Conditions -  °F | °C
As of 7:53 PM on Wednesday 22 Oct 2014 (Local Time) from KPAH Reporting Station
Clear Clear  
Wind Chill: 50°   Ceiling: Unl
Heat Index: 50°   Visibility: 10mi
Dew Point: 42°   Wind: 3mph
Humidity: 74%   Direction: 90°E
Pressure: 30.22"   Gusts: NA
Location:  37.0919°N, 88.7716°W
Report Text: KPAH 230053Z 09003KT 10SM CLR 10/06 A3022 RMK AO2 SLP233 T01000056
Loading
Personal Weather Stations






























Interactive Weather Map
Tropical Storm Tracking
New forecast layout! Learn more

10-Day Weather Forecast

Advertisements
Track Severe Weather on mobile